createdAt,value
2018-10-21T00:01:36.834Z,22.53
2018-10-21T00:04:05.740Z,21.03
2018-10-21T00:06:34.048Z,24.70
2018-10-21T00:09:07.027Z,24.80
2018-10-21T00:11:35.298Z,24.13
2018-10-21T00:14:03.701Z,24.07
2018-10-21T00:16:32.093Z,23.80
2018-10-21T00:19:00.438Z,21.37
2018-10-21T00:21:28.786Z,21.10
2018-10-21T00:23:57.124Z,21.30
2018-10-21T00:26:25.495Z,22.30
2018-10-21T00:28:53.998Z,22.50
2018-10-21T00:31:22.351Z,22.93
2018-10-21T00:33:50.654Z,22.53
2018-10-21T00:36:18.995Z,25.43
2018-10-21T00:38:47.265Z,23.00
2018-10-21T00:41:15.574Z,25.60
2018-10-21T00:43:43.880Z,23.67
2018-10-21T00:46:12.208Z,23.50
2018-10-21T00:48:40.482Z,23.97
2018-10-21T00:51:08.893Z,24.87
2018-10-21T00:53:37.104Z,23.97
2018-10-21T00:56:05.513Z,23.93
2018-10-21T00:58:33.945Z,27.40
2018-10-21T01:01:02.245Z,25.83
2018-10-21T01:03:30.533Z,24.60
2018-10-21T01:05:58.841Z,24.63
2018-10-21T01:08:27.111Z,25.00
2018-10-21T01:10:55.414Z,25.40
2018-10-21T01:13:23.699Z,23.67
2018-10-21T01:15:51.962Z,22.80
2018-10-21T01:18:20.265Z,23.10
2018-10-21T01:20:48.606Z,23.63
2018-10-21T01:23:16.956Z,25.53
2018-10-21T01:25:45.279Z,23.33
2018-10-21T01:28:13.527Z,24.03
2018-10-21T01:30:41.797Z,26.80
2018-10-21T01:33:10.217Z,23.00
2018-10-21T01:35:38.391Z,24.73
2018-10-21T01:38:06.770Z,26.70
2018-10-21T01:40:41.713Z,27.17
2018-10-21T01:43:11.385Z,27.17
2018-10-21T01:45:39.677Z,26.40
2018-10-21T01:48:09.184Z,26.43
2018-10-21T01:50:37.531Z,23.70
2018-10-21T01:53:06.955Z,28.97
2018-10-21T01:55:35.290Z,24.73
2018-10-21T01:58:03.590Z,26.77
2018-10-21T02:00:32.643Z,24.10
2018-10-21T02:03:01.330Z,28.03
2018-10-21T02:05:29.914Z,29.50
2018-10-21T02:07:58.196Z,32.80
2018-10-21T02:10:26.589Z,33.33
2018-10-21T02:12:55.208Z,31.73
2018-10-21T02:15:23.645Z,32.33
2018-10-21T02:17:52.009Z,34.40
2018-10-21T02:20:20.856Z,33.07
2018-10-21T02:22:49.538Z,35.67
2018-10-21T02:25:17.889Z,36.40
2018-10-21T02:27:47.030Z,36.20
2018-10-21T02:30:17.229Z,35.50
2018-10-21T02:32:46.326Z,38.50
2018-10-21T02:35:15.268Z,46.37
2018-10-21T02:37:43.966Z,44.03
2018-10-21T02:41:22.731Z,38.23
2018-10-21T02:43:51.119Z,34.97
2018-10-21T02:46:20.127Z,32.50
2018-10-21T02:48:48.437Z,35.30
2018-10-21T02:51:16.814Z,33.10
2018-10-21T02:53:45.114Z,32.33
2018-10-21T02:56:13.467Z,31.67
2018-10-21T02:58:41.703Z,31.90
2018-10-21T03:01:10.039Z,33.73
2018-10-21T03:03:38.980Z,31.83
2018-10-21T03:06:07.297Z,34.77
2018-10-21T03:08:36.150Z,35.13
2018-10-21T03:11:04.460Z,37.77
2018-10-21T03:13:33.132Z,38.83
2018-10-21T03:16:01.478Z,39.03
2018-10-21T03:18:30.113Z,40.37
2018-10-21T03:20:58.464Z,38.97
2018-10-21T03:23:26.741Z,37.80
2018-10-21T03:25:55.133Z,36.87
2018-10-21T03:28:23.399Z,34.63
2018-10-21T03:30:51.692Z,36.27
2018-10-21T03:33:20.161Z,38.27
2018-10-21T03:35:48.257Z,39.07
2018-10-21T03:38:16.526Z,38.13
2018-10-21T03:40:44.852Z,37.80
2018-10-21T03:43:15.160Z,41.27
2018-10-21T03:45:43.488Z,42.07
2018-10-21T03:48:11.757Z,39.00
2018-10-21T03:50:40.067Z,41.73
2018-10-21T03:53:08.335Z,42.27
2018-10-21T03:55:39.121Z,41.80
2018-10-21T03:58:07.490Z,40.00
2018-10-21T04:00:36.222Z,45.40
2018-10-21T04:03:04.830Z,42.67
2018-10-21T04:05:33.385Z,44.53
2018-10-21T04:08:01.687Z,44.77
2018-10-21T04:10:32.098Z,45.33
2018-10-21T04:13:00.557Z,43.10
2018-10-21T04:15:28.887Z,42.30
2018-10-21T04:17:57.357Z,41.73
2018-10-21T04:20:25.746Z,43.67
2018-10-21T04:22:55.067Z,42.60
2018-10-21T04:25:24.294Z,43.13
2018-10-21T04:27:53.523Z,37.20
2018-10-21T04:30:22.792Z,36.80
2018-10-21T04:32:59.511Z,38.87
2018-10-21T04:35:27.893Z,38.27
2018-10-21T04:40:12.370Z,37.97
2018-10-21T04:42:40.634Z,35.33
2018-10-21T04:45:09.609Z,39.27
2018-10-21T04:47:37.946Z,40.37
2018-10-21T04:50:07.714Z,39.13
2018-10-21T04:52:36.018Z,38.07
2018-10-21T04:55:13.505Z,36.67
2018-10-21T04:57:42.947Z,35.83
2018-10-21T05:00:19.190Z,37.80
2018-10-21T05:02:53.841Z,37.00
2018-10-21T05:05:22.094Z,38.50
2018-10-21T05:07:50.422Z,37.00
2018-10-21T05:10:25.813Z,36.67
2018-10-21T05:12:54.066Z,37.40
2018-10-21T05:15:23.616Z,33.60
2018-10-21T05:17:52.113Z,34.67
2018-10-21T05:20:20.560Z,39.37
2018-10-21T05:22:48.962Z,35.23
2018-10-21T05:25:17.260Z,35.70
2018-10-21T05:27:45.521Z,35.20
2018-10-21T05:30:14.286Z,35.67
2018-10-21T05:32:42.918Z,35.20
2018-10-21T05:35:12.903Z,37.63
2018-10-21T05:37:41.392Z,36.60
2018-10-21T05:40:24.911Z,40.00
2018-10-21T05:42:53.137Z,37.57
2018-10-21T05:45:21.414Z,35.03
2018-10-21T05:47:49.692Z,36.07
2018-10-21T05:50:18.045Z,36.53
2018-10-21T05:52:46.416Z,35.17
2018-10-21T05:55:15.270Z,36.07
2018-10-21T05:57:44.647Z,34.70
2018-10-21T06:00:15.225Z,36.87
2018-10-21T06:02:43.713Z,37.47
2018-10-21T06:05:39.849Z,39.00
2018-10-21T06:08:08.524Z,36.67
2018-10-21T06:10:36.835Z,39.30
2018-10-21T06:13:05.621Z,37.50
2018-10-21T06:15:33.930Z,36.67
2018-10-21T06:18:03.223Z,36.50
2018-10-21T06:20:34.327Z,37.00
2018-10-21T06:23:02.668Z,34.60
2018-10-21T06:25:31.976Z,37.43
2018-10-21T06:28:00.338Z,36.70
2018-10-21T06:30:28.648Z,36.73
2018-10-21T06:32:56.972Z,35.70
2018-10-21T06:35:25.269Z,36.07
2018-10-21T06:37:53.589Z,36.67
2018-10-21T06:40:22.038Z,36.90
2018-10-21T06:42:50.336Z,36.63
2018-10-21T06:45:18.775Z,37.20
2018-10-21T06:47:46.926Z,35.20
2018-10-21T06:50:16.985Z,36.73
2018-10-21T06:52:45.280Z,34.80
2018-10-21T06:55:13.946Z,37.10
2018-10-21T06:57:44.068Z,35.20
2018-10-21T07:00:12.334Z,33.60
2018-10-21T07:02:47.707Z,32.27
2018-10-21T07:05:27.406Z,31.60
2018-10-21T07:07:55.717Z,34.20
2018-10-21T07:10:24.029Z,31.87
2018-10-21T07:12:52.373Z,32.17
2018-10-21T07:15:22.825Z,31.80
2018-10-21T07:17:51.016Z,31.27
2018-10-21T07:20:19.453Z,32.27
2018-10-21T07:22:47.737Z,34.63
2018-10-21T07:25:16.605Z,33.00
2018-10-21T07:27:44.898Z,32.50
2018-10-21T07:30:13.878Z,33.80
2018-10-21T07:32:45.619Z,31.20
2018-10-21T07:35:14.675Z,31.87
2018-10-21T07:37:43.730Z,31.70
2018-10-21T07:40:13.194Z,29.57
2018-10-21T07:42:41.739Z,28.80
2018-10-21T07:45:10.164Z,33.70
2018-10-21T07:47:38.450Z,33.47
2018-10-21T07:50:06.759Z,31.10
2018-10-21T07:52:35.195Z,28.90
2018-10-21T07:55:04.633Z,30.87
2018-10-21T07:57:32.892Z,30.70
2018-10-21T08:00:01.168Z,29.57
2018-10-21T08:02:29.486Z,28.50
2018-10-21T08:04:58.455Z,31.30
2018-10-21T08:07:38.134Z,30.30
2018-10-21T08:10:07.356Z,30.77
2018-10-21T08:12:36.663Z,31.37
2018-10-21T08:15:05.450Z,29.93
2018-10-21T08:17:34.026Z,29.07
2018-10-21T08:20:02.440Z,29.20
2018-10-21T08:22:30.788Z,30.10
2018-10-21T08:24:59.143Z,29.10
2018-10-21T08:27:27.505Z,27.13
2018-10-21T08:29:55.836Z,31.03
2018-10-21T08:32:24.164Z,28.87
2018-10-21T08:34:52.456Z,30.73
2018-10-21T08:37:20.710Z,28.23
2018-10-21T08:39:49.059Z,30.40
2018-10-21T08:42:17.401Z,28.20
2018-10-21T08:44:45.800Z,29.33
2018-10-21T08:47:14.125Z,31.47
2018-10-21T08:49:44.539Z,27.67
2018-10-21T08:52:12.870Z,29.20
2018-10-21T08:54:41.187Z,29.47
2018-10-21T08:57:09.450Z,29.17
2018-10-21T08:59:41.666Z,27.90
2018-10-21T09:02:10.064Z,27.63
2018-10-21T09:04:38.404Z,27.37
2018-10-21T09:07:06.738Z,28.27
2018-10-21T09:09:35.001Z,27.80
2018-10-21T09:12:03.306Z,28.90
2018-10-21T09:14:31.621Z,28.00
2018-10-21T09:16:59.919Z,28.60
2018-10-21T09:19:28.563Z,27.03
2018-10-21T09:21:56.888Z,29.00
2018-10-21T09:24:25.427Z,26.17
2018-10-21T09:26:53.771Z,28.40
2018-10-21T09:29:22.069Z,27.57
2018-10-21T09:31:50.369Z,28.30
2018-10-21T09:34:19.159Z,27.83
2018-10-21T09:36:47.396Z,28.57
2018-10-21T09:39:19.487Z,28.07
2018-10-21T09:41:47.798Z,28.17
2018-10-21T09:44:19.241Z,27.23
2018-10-21T09:46:47.571Z,27.33
2018-10-21T09:49:15.927Z,25.30
2018-10-21T09:51:47.897Z,28.03
2018-10-21T09:54:16.226Z,25.60
2018-10-21T09:56:44.778Z,25.27
2018-10-21T09:59:14.090Z,25.33
2018-10-21T10:01:47.725Z,24.73
2018-10-21T10:04:16.084Z,23.33
2018-10-21T10:06:44.406Z,22.53
2018-10-21T10:09:13.446Z,23.43
2018-10-21T10:11:42.555Z,22.40
2018-10-21T10:14:11.261Z,20.60
2018-10-21T10:16:39.860Z,20.50
2018-10-21T10:19:08.225Z,19.07
2018-10-21T10:21:36.550Z,18.40
2018-10-21T10:24:04.876Z,17.40
2018-10-21T10:26:33.274Z,17.37
2018-10-21T10:29:01.585Z,17.50
2018-10-21T10:31:29.943Z,16.30
2018-10-21T10:33:58.270Z,15.67
2018-10-21T10:36:26.623Z,17.90
2018-10-21T10:38:54.959Z,17.53
2018-10-21T10:41:23.256Z,17.30
2018-10-21T10:43:51.548Z,16.80
2018-10-21T10:46:19.851Z,14.87
2018-10-21T10:48:48.161Z,14.07
2018-10-21T10:51:16.498Z,14.70
2018-10-21T10:53:44.824Z,14.43
2018-10-21T10:56:15.169Z,12.10
2018-10-21T10:58:43.497Z,12.70
2018-10-21T11:01:11.847Z,11.83
2018-10-21T11:03:40.106Z,11.03
2018-10-21T11:06:11.976Z,10.23
2018-10-21T11:08:40.286Z,7.90
2018-10-21T11:11:11.970Z,7.30
2018-10-21T11:13:40.392Z,5.67
2018-10-21T11:16:09.264Z,5.60
2018-10-21T11:18:37.520Z,6.30
2018-10-21T11:21:05.984Z,5.30
2018-10-21T11:23:35.376Z,5.90
2018-10-21T11:26:04.156Z,5.20
2018-10-21T11:28:32.532Z,5.23
2018-10-21T11:31:00.987Z,5.60
2018-10-21T11:33:32.483Z,5.50
2018-10-21T11:36:04.299Z,6.13
2018-10-21T11:38:32.643Z,5.23
2018-10-21T11:41:00.986Z,5.20
2018-10-21T11:43:29.588Z,4.60
2018-10-21T11:45:57.996Z,5.10
2018-10-21T11:48:26.299Z,5.80
2018-10-21T11:50:55.676Z,4.80
2018-10-21T11:53:24.103Z,3.63
2018-10-21T11:55:52.370Z,4.60
2018-10-21T11:58:20.630Z,4.40
2018-10-21T12:00:48.983Z,4.57
2018-10-21T12:03:17.329Z,5.33
2018-10-21T12:05:45.667Z,4.67
2018-10-21T12:08:14.097Z,4.80
2018-10-21T12:10:42.429Z,5.00
2018-10-21T12:13:16.324Z,4.13
2018-10-21T12:15:44.491Z,3.70
2018-10-21T12:18:12.763Z,3.70
2018-10-21T12:20:41.058Z,4.70
2018-10-21T12:23:09.488Z,4.77
2018-10-21T12:25:37.744Z,3.37
2018-10-21T12:28:06.026Z,2.50
2018-10-21T12:30:34.403Z,2.60
2018-10-21T12:33:07.326Z,2.20
2018-10-21T12:35:35.633Z,2.50
2018-10-21T12:38:04.038Z,2.53
2018-10-21T12:40:32.347Z,2.50
2018-10-21T12:43:00.751Z,2.07
2018-10-21T12:45:29.091Z,2.57
2018-10-21T12:47:57.383Z,2.50
2018-10-21T12:50:29.668Z,2.33
2018-10-21T12:52:58.025Z,2.10
2018-10-21T12:55:26.294Z,2.20
2018-10-21T12:57:54.688Z,1.93
2018-10-21T13:00:22.957Z,2.33
2018-10-21T13:02:51.281Z,2.13
2018-10-21T13:05:19.579Z,2.47
2018-10-21T13:07:47.893Z,2.47
2018-10-21T13:10:16.307Z,2.00
2018-10-21T13:12:44.584Z,2.77
2018-10-21T13:15:12.908Z,1.90
2018-10-21T13:17:41.225Z,2.20
2018-10-21T13:20:09.504Z,1.93
2018-10-21T13:22:37.738Z,1.83
2018-10-21T13:25:06.222Z,2.00
2018-10-21T13:27:34.479Z,2.03
2018-10-21T13:30:02.792Z,2.00
2018-10-21T13:32:31.154Z,2.57
2018-10-21T13:34:59.450Z,2.63
2018-10-21T13:37:27.790Z,2.57
2018-10-21T13:39:56.084Z,2.00
2018-10-21T13:42:24.383Z,2.30
2018-10-21T13:44:52.645Z,2.43
2018-10-21T13:47:20.985Z,2.50
2018-10-21T13:49:49.323Z,2.47
2018-10-21T13:52:17.718Z,2.20
2018-10-21T13:54:46.351Z,2.20
2018-10-21T13:57:20.507Z,2.13
2018-10-21T13:59:48.810Z,2.37
2018-10-21T14:02:17.141Z,2.70
2018-10-21T14:04:45.462Z,2.00
2018-10-21T14:07:13.799Z,2.10
2018-10-21T14:09:42.065Z,2.20
2018-10-21T14:12:10.352Z,2.30
2018-10-21T14:14:39.712Z,2.03
2018-10-21T14:17:07.991Z,2.03
2018-10-21T14:19:36.317Z,1.97
2018-10-21T14:22:04.914Z,2.30
2018-10-21T14:24:33.296Z,2.10
2018-10-21T14:27:01.509Z,1.77
2018-10-21T14:29:29.752Z,2.00
2018-10-21T14:31:58.023Z,3.20
2018-10-21T14:34:36.500Z,2.40
2018-10-21T14:37:05.039Z,2.40
2018-10-21T14:39:33.349Z,2.13
2018-10-21T14:42:01.627Z,2.00
2018-10-21T14:44:29.901Z,2.20
2018-10-21T14:46:58.278Z,2.27
2018-10-21T14:49:26.583Z,2.40
2018-10-21T14:51:54.870Z,2.30
2018-10-21T14:54:23.135Z,1.97
2018-10-21T14:56:51.543Z,2.50
2018-10-21T14:59:19.837Z,2.13
2018-10-21T15:01:48.113Z,2.60
2018-10-21T15:04:16.515Z,2.07
2018-10-21T15:06:44.739Z,1.80
2018-10-21T15:09:14.064Z,2.27
2018-10-21T15:11:47.055Z,2.20
2018-10-21T15:14:15.479Z,2.60
2018-10-21T15:16:43.638Z,2.20
2018-10-21T15:19:11.957Z,2.20
2018-10-21T15:21:40.284Z,2.10
2018-10-21T15:24:08.624Z,1.83
2018-10-21T15:26:36.951Z,1.60
2018-10-21T15:29:05.800Z,2.17
2018-10-21T15:31:34.091Z,2.07
2018-10-21T15:34:02.523Z,1.70
2018-10-21T15:36:30.781Z,1.90
2018-10-21T15:38:59.060Z,3.33
2018-10-21T15:41:27.390Z,1.90
2018-10-21T15:43:55.700Z,2.50
2018-10-21T15:46:23.922Z,2.13
2018-10-21T15:48:52.212Z,2.50
2018-10-21T15:51:20.508Z,2.40
2018-10-21T15:53:48.832Z,1.97
2018-10-21T15:56:17.167Z,2.10
2018-10-21T15:58:45.457Z,2.20
2018-10-21T16:01:13.788Z,2.30
2018-10-21T16:03:42.087Z,2.70
2018-10-21T16:06:11.611Z,3.63
2018-10-21T16:08:39.903Z,4.10
2018-10-21T16:11:08.502Z,3.27
2018-10-21T16:13:36.912Z,2.73
2018-10-21T16:16:05.708Z,2.33
2018-10-21T16:18:39.246Z,2.60
2018-10-21T16:21:07.566Z,2.77
2018-10-21T16:23:37.953Z,3.23
2018-10-21T16:26:07.251Z,3.37
2018-10-21T16:28:35.573Z,3.47
2018-10-21T16:31:05.831Z,7.90
2018-10-21T16:33:34.131Z,10.37
2018-10-21T16:36:04.667Z,6.43
2018-10-21T16:38:33.217Z,3.90
2018-10-21T16:41:01.388Z,3.50
2018-10-21T16:43:29.740Z,5.17
2018-10-21T16:45:58.061Z,5.30
2018-10-21T16:48:26.446Z,3.40
2018-10-21T16:50:54.860Z,3.43
2018-10-21T16:53:23.192Z,6.50
2018-10-21T16:55:51.532Z,3.63
2018-10-21T16:58:20.084Z,3.03
2018-10-21T17:00:48.641Z,2.80
2018-10-21T17:03:17.081Z,2.30
2018-10-21T17:05:45.498Z,2.57
2018-10-21T17:08:13.961Z,3.00
2018-10-21T17:10:42.828Z,2.80
2018-10-21T17:13:11.313Z,2.80
2018-10-21T17:15:39.688Z,7.50
2018-10-21T17:18:08.087Z,3.80
2018-10-21T17:20:36.470Z,2.73
2018-10-21T17:23:05.522Z,2.80
2018-10-21T17:25:33.805Z,5.40
2018-10-21T17:28:02.187Z,4.40
2018-10-21T17:30:30.847Z,4.07
2018-10-21T17:32:59.032Z,3.60
2018-10-21T17:35:27.606Z,3.10
2018-10-21T17:37:56.002Z,3.50
2018-10-21T17:40:24.389Z,3.30
2018-10-21T17:42:52.650Z,3.33
2018-10-21T17:45:21.038Z,3.20
2018-10-21T17:47:49.387Z,3.80
2018-10-21T17:50:17.665Z,3.17
2018-10-21T17:52:45.996Z,5.23
2018-10-21T17:55:14.727Z,3.40
2018-10-21T17:57:42.914Z,3.80
2018-10-21T18:00:12.313Z,3.40
2018-10-21T18:02:40.706Z,3.40
2018-10-21T18:05:10.912Z,3.50
2018-10-21T18:07:39.411Z,4.83
2018-10-21T18:10:07.832Z,3.50
2018-10-21T18:12:36.356Z,3.60
2018-10-21T18:15:05.498Z,3.90
2018-10-21T18:17:33.869Z,3.67
2018-10-21T18:20:02.256Z,3.27
2018-10-21T18:22:30.512Z,3.30
2018-10-21T18:24:58.955Z,3.60
2018-10-21T18:27:28.357Z,2.63
2018-10-21T18:29:56.999Z,3.40
2018-10-21T18:32:26.414Z,3.17
2018-10-21T18:34:54.716Z,3.43
2018-10-21T18:37:23.008Z,3.60
2018-10-21T18:39:51.470Z,3.23
2018-10-21T18:42:19.962Z,3.47
2018-10-21T18:44:48.235Z,5.73
2018-10-21T18:47:16.537Z,5.90
2018-10-21T18:49:44.826Z,3.30
2018-10-21T18:52:13.125Z,3.10
2018-10-21T18:54:41.411Z,3.20
2018-10-21T18:57:09.761Z,3.57
2018-10-21T18:59:38.007Z,3.43
2018-10-21T19:02:06.426Z,3.40
2018-10-21T19:04:34.759Z,3.27
2018-10-21T19:07:03.110Z,3.80
2018-10-21T19:09:31.373Z,3.80
2018-10-21T19:12:01.762Z,3.83
2018-10-21T19:14:30.091Z,3.77
2018-10-21T19:16:58.357Z,3.83
2018-10-21T19:19:26.663Z,4.20
2018-10-21T19:21:55.011Z,7.20
2018-10-21T19:24:23.324Z,6.00
2018-10-21T19:26:51.715Z,6.80
2018-10-21T19:29:19.998Z,5.60
2018-10-21T19:31:48.400Z,4.47
2018-10-21T19:34:16.772Z,4.67
2018-10-21T19:36:45.099Z,5.10
2018-10-21T19:39:13.894Z,4.60
2018-10-21T19:41:42.173Z,4.10
2018-10-21T19:44:11.383Z,4.50
2018-10-21T19:46:39.985Z,4.23
2018-10-21T19:49:08.877Z,4.40
2018-10-21T19:51:37.367Z,4.73
2018-10-21T19:54:06.160Z,6.00
2018-10-21T19:56:34.552Z,5.37
2018-10-21T19:59:04.128Z,4.73
2018-10-21T20:01:32.450Z,5.17
2018-10-21T20:04:00.848Z,4.17
2018-10-21T20:06:29.138Z,4.63
2018-10-21T20:08:57.452Z,4.77
2018-10-21T20:11:25.770Z,5.67
2018-10-21T20:13:54.105Z,5.13
2018-10-21T20:16:22.879Z,6.30
2018-10-21T20:18:51.217Z,5.70
2018-10-21T20:21:19.523Z,5.80
2018-10-21T20:23:47.827Z,5.50
2018-10-21T20:26:16.125Z,5.90
2018-10-21T20:28:44.371Z,6.00
2018-10-21T20:31:12.793Z,6.30
2018-10-21T20:33:41.278Z,5.80
2018-10-21T20:36:09.573Z,5.37
2018-10-21T20:38:38.146Z,5.50
2018-10-21T20:41:06.474Z,4.83
2018-10-21T20:43:34.801Z,5.20
2018-10-21T20:46:03.142Z,5.03
2018-10-21T20:48:31.418Z,4.90
2018-10-21T20:51:00.025Z,4.87
2018-10-21T20:53:29.271Z,4.87
2018-10-21T20:55:57.542Z,5.87
2018-10-21T20:58:25.980Z,6.17
2018-10-21T21:00:54.272Z,6.10
2018-10-21T21:03:22.596Z,4.93
2018-10-21T21:05:50.881Z,4.60
2018-10-21T21:08:19.337Z,5.90
2018-10-21T21:10:47.565Z,6.53
2018-10-21T21:13:15.845Z,5.67
2018-10-21T21:15:44.154Z,5.90
2018-10-21T21:18:12.518Z,6.60
2018-10-21T21:20:40.823Z,5.70
2018-10-21T21:23:09.035Z,7.80
2018-10-21T21:25:37.375Z,7.17
2018-10-21T21:28:06.960Z,6.37
2018-10-21T21:30:35.191Z,6.10
2018-10-21T21:33:03.505Z,5.87
2018-10-21T21:35:31.779Z,6.20
2018-10-21T21:38:00.508Z,6.97
2018-10-21T21:40:28.904Z,7.10
2018-10-21T21:42:57.223Z,6.20
2018-10-21T21:45:25.502Z,7.10
2018-10-21T21:47:53.849Z,6.30
2018-10-21T21:50:22.083Z,7.00
2018-10-21T21:52:50.353Z,6.70
2018-10-21T21:55:18.613Z,6.73
2018-10-21T21:57:46.924Z,7.70
2018-10-21T22:00:15.349Z,8.07
2018-10-21T22:02:43.581Z,7.50
2018-10-21T22:05:11.842Z,8.10
2018-10-21T22:07:40.790Z,7.50
2018-10-21T22:10:11.443Z,7.77
2018-10-21T22:12:39.754Z,7.57
2018-10-21T22:15:08.078Z,9.10
2018-10-21T22:17:37.230Z,8.60
2018-10-21T22:20:05.849Z,8.33
2018-10-21T22:22:34.101Z,8.63
2018-10-21T22:25:02.427Z,7.83
2018-10-21T22:27:30.708Z,8.83
2018-10-21T22:29:59.053Z,9.00
2018-10-21T22:32:27.321Z,8.80
2018-10-21T22:34:55.623Z,8.80
2018-10-21T22:37:23.890Z,8.60
2018-10-21T22:39:52.182Z,9.77
2018-10-21T22:42:20.478Z,9.40
2018-10-21T22:44:48.798Z,9.30
2018-10-21T22:47:17.102Z,11.37
2018-10-21T22:49:45.408Z,9.70
2018-10-21T22:52:13.764Z,8.50
2018-10-21T22:54:42.022Z,9.50
2018-10-21T22:57:16.587Z,12.67
2018-10-21T22:59:45.598Z,10.10
2018-10-21T23:02:14.172Z,8.17
2018-10-21T23:04:42.488Z,9.03
2018-10-21T23:07:10.827Z,8.20
2018-10-21T23:09:39.166Z,8.80
2018-10-21T23:12:07.926Z,8.50
2018-10-21T23:14:36.170Z,9.03
2018-10-21T23:17:04.529Z,9.60
2018-10-21T23:19:50.199Z,9.77
2018-10-21T23:22:19.583Z,9.27
2018-10-21T23:24:47.860Z,9.70
2018-10-21T23:27:16.102Z,9.50
2018-10-21T23:29:44.676Z,10.43
2018-10-21T23:32:12.965Z,9.80
2018-10-21T23:34:41.254Z,10.47
2018-10-21T23:37:09.691Z,9.60
2018-10-21T23:39:38.006Z,9.57
2018-10-21T23:42:06.327Z,9.60
2018-10-21T23:44:34.551Z,10.03
2018-10-21T23:47:02.998Z,10.33
2018-10-21T23:49:31.335Z,10.00
2018-10-21T23:51:59.637Z,9.57
2018-10-21T23:54:27.966Z,9.67
2018-10-21T23:56:56.138Z,10.77
2018-10-21T23:59:24.466Z,10.00
